createdAt,value
2023-05-12T00:01:02.313Z,2.90
2023-05-12T00:03:29.120Z,3.03
2023-05-12T00:05:55.924Z,2.35
2023-05-12T00:08:24.050Z,2.33
2023-05-12T00:10:59.513Z,2.67
2023-05-12T00:13:28.703Z,2.83
2023-05-12T00:15:56.782Z,2.65
2023-05-12T00:18:24.233Z,2.28
2023-05-12T00:20:50.916Z,2.35
2023-05-12T00:23:26.505Z,2.45
2023-05-12T00:26:03.236Z,3.42
2023-05-12T00:28:29.939Z,3.35
2023-05-12T00:31:00.789Z,2.75
2023-05-12T00:33:33.115Z,3.47
2023-05-12T00:36:07.008Z,3.13
2023-05-12T00:38:41.302Z,3.63
2023-05-12T00:41:07.934Z,3.65
2023-05-12T00:43:34.592Z,3.85
2023-05-12T00:46:06.248Z,4.32
2023-05-12T00:48:33.651Z,3.65
2023-05-12T00:51:04.685Z,4.07
2023-05-12T00:53:41.419Z,4.03
2023-05-12T00:56:29.878Z,3.47
2023-05-12T00:58:58.001Z,3.25
2023-05-12T01:01:24.747Z,2.72
2023-05-12T01:03:51.599Z,2.28
2023-05-12T01:06:34.184Z,2.30
2023-05-12T01:09:01.339Z,1.92
2023-05-12T01:11:27.974Z,2.35
2023-05-12T01:13:54.583Z,1.73
2023-05-12T01:16:24.113Z,1.80
2023-05-12T01:18:53.428Z,2.05
2023-05-12T01:21:20.356Z,2.10
2023-05-12T01:23:54.600Z,1.92
2023-05-12T01:26:22.298Z,2.08
2023-05-12T01:28:49.858Z,2.30
2023-05-12T01:31:18.317Z,2.50
2023-05-12T01:33:47.325Z,2.00
2023-05-12T01:36:13.886Z,1.90
2023-05-12T01:38:40.457Z,1.83
2023-05-12T01:41:06.987Z,2.05
2023-05-12T01:43:33.562Z,1.50
2023-05-12T01:46:00.101Z,1.65
2023-05-12T01:48:26.844Z,1.40
2023-05-12T01:50:53.394Z,1.30
2023-05-12T01:53:19.908Z,1.23
2023-05-12T01:55:46.464Z,1.20
2023-05-12T01:58:13.089Z,1.23
2023-05-12T02:00:39.587Z,1.13
2023-05-12T02:03:06.400Z,0.90
2023-05-12T02:05:33.028Z,0.90
2023-05-12T02:07:59.571Z,0.77
2023-05-12T02:10:26.167Z,0.60
2023-05-12T02:12:52.743Z,1.25
2023-05-12T02:15:19.310Z,0.80
2023-05-12T02:17:46.012Z,0.90
2023-05-12T02:20:12.904Z,1.27
2023-05-12T02:22:39.550Z,1.10
2023-05-12T02:25:06.659Z,1.10
2023-05-12T02:27:33.266Z,1.70
2023-05-12T02:29:59.852Z,1.65
2023-05-12T02:32:28.596Z,1.90
2023-05-12T02:34:56.369Z,1.92
2023-05-12T02:37:22.987Z,2.20
2023-05-12T02:39:49.563Z,2.47
2023-05-12T02:42:16.369Z,2.55
2023-05-12T02:44:42.925Z,3.08
2023-05-12T02:47:09.453Z,3.05
2023-05-12T02:49:36.501Z,3.60
2023-05-12T02:52:03.171Z,3.35
2023-05-12T02:54:29.711Z,3.17
2023-05-12T02:56:58.167Z,3.90
2023-05-12T02:59:24.738Z,3.33
2023-05-12T03:01:51.658Z,3.17
2023-05-12T03:04:18.266Z,3.45
2023-05-12T03:06:44.845Z,4.57
2023-05-12T03:09:11.417Z,4.47
2023-05-12T03:11:37.959Z,4.93
2023-05-12T03:14:04.485Z,5.40
2023-05-12T03:16:31.022Z,5.25
2023-05-12T03:18:57.660Z,4.95
2023-05-12T03:21:24.343Z,5.68
2023-05-12T03:23:50.948Z,5.68
2023-05-12T03:26:18.419Z,7.15
2023-05-12T03:28:44.945Z,6.80
2023-05-12T03:31:11.782Z,7.32
2023-05-12T03:33:38.347Z,7.22
2023-05-12T03:36:05.792Z,6.50
2023-05-12T03:38:32.326Z,8.65
2023-05-12T03:41:06.711Z,8.18
2023-05-12T03:43:33.782Z,8.10
2023-05-12T03:46:00.562Z,8.68
2023-05-12T03:48:27.299Z,10.05
2023-05-12T03:50:53.888Z,10.45
2023-05-12T03:53:20.707Z,8.98
2023-05-12T03:55:47.293Z,10.05
2023-05-12T03:58:13.875Z,10.40
2023-05-12T04:00:40.396Z,10.70
2023-05-12T04:03:07.418Z,10.48
2023-05-12T04:05:34.029Z,10.77
2023-05-12T04:08:00.615Z,10.98
2023-05-12T04:10:27.215Z,11.52
2023-05-12T04:12:54.630Z,11.40
2023-05-12T04:15:21.564Z,11.63
2023-05-12T04:17:48.421Z,12.00
2023-05-12T04:20:15.072Z,11.57
2023-05-12T04:22:41.605Z,11.88
2023-05-12T04:25:08.639Z,12.85
2023-05-12T04:27:35.253Z,12.25
2023-05-12T04:30:01.992Z,11.80
2023-05-12T04:32:28.564Z,11.95
2023-05-12T04:34:56.627Z,11.98
2023-05-12T04:37:23.248Z,13.57
2023-05-12T04:39:49.895Z,13.13
2023-05-12T04:42:16.402Z,13.95
2023-05-12T04:44:46.049Z,14.85
2023-05-12T04:47:12.888Z,13.98
2023-05-12T04:49:39.433Z,13.63
2023-05-12T04:52:06.180Z,15.65
2023-05-12T04:54:32.843Z,15.52
2023-05-12T04:56:59.331Z,14.27
2023-05-12T04:59:25.894Z,15.80
2023-05-12T05:01:52.598Z,16.48
2023-05-12T05:04:19.593Z,15.15
2023-05-12T05:06:46.166Z,14.63
2023-05-12T05:09:12.686Z,16.45
2023-05-12T05:11:39.312Z,18.13
2023-05-12T05:14:05.848Z,16.88
2023-05-12T05:16:32.457Z,15.65
2023-05-12T05:18:59.066Z,14.95
2023-05-12T05:21:25.687Z,16.30
2023-05-12T05:23:53.193Z,17.63
2023-05-12T05:26:21.639Z,16.30
2023-05-12T05:28:48.265Z,17.13
2023-05-12T05:31:18.180Z,16.08
2023-05-12T05:33:44.836Z,16.27
2023-05-12T05:36:11.556Z,16.85
2023-05-12T05:38:38.394Z,15.85
2023-05-12T05:41:05.753Z,17.25
2023-05-12T05:43:32.629Z,17.85
2023-05-12T05:45:59.277Z,17.15
2023-05-12T05:48:25.996Z,17.77
2023-05-12T05:50:53.494Z,18.33
2023-05-12T05:53:20.979Z,18.27
2023-05-12T05:55:51.322Z,18.70
2023-05-12T05:58:18.032Z,18.73
2023-05-12T06:00:44.927Z,17.70
2023-05-12T06:03:11.759Z,18.35
2023-05-12T06:05:38.500Z,16.98
2023-05-12T06:08:05.345Z,16.13
2023-05-12T06:10:32.032Z,17.95
2023-05-12T06:12:58.552Z,17.88
2023-05-12T06:15:25.118Z,18.10
2023-05-12T06:17:51.760Z,17.48
2023-05-12T06:20:18.474Z,17.10
2023-05-12T06:22:45.071Z,17.55
2023-05-12T06:25:11.998Z,18.33
2023-05-12T06:27:38.598Z,17.48
2023-05-12T06:30:05.756Z,16.23
2023-05-12T06:32:32.404Z,16.60
2023-05-12T06:34:59.046Z,16.30
2023-05-12T06:37:25.567Z,16.20
2023-05-12T06:39:52.132Z,17.95
2023-05-12T06:42:18.811Z,17.48
2023-05-12T06:44:46.126Z,15.60
2023-05-12T06:47:12.892Z,17.08
2023-05-12T06:49:39.800Z,17.40
2023-05-12T06:52:06.763Z,15.30
2023-05-12T06:54:33.804Z,16.60
2023-05-12T06:57:00.672Z,16.40
2023-05-12T06:59:27.235Z,16.42
2023-05-12T07:01:53.975Z,16.63
2023-05-12T07:04:21.260Z,15.82
2023-05-12T07:06:47.819Z,16.20
2023-05-12T07:09:14.413Z,17.05
2023-05-12T07:11:40.974Z,17.58
2023-05-12T07:14:07.489Z,16.92
2023-05-12T07:16:34.118Z,16.73
2023-05-12T07:19:01.130Z,17.27
2023-05-12T07:21:28.606Z,16.08
2023-05-12T07:23:55.151Z,17.30
2023-05-12T07:26:24.165Z,16.63
2023-05-12T07:28:50.733Z,17.10
2023-05-12T07:31:17.377Z,17.38
2023-05-12T07:33:44.049Z,16.98
2023-05-12T07:36:10.557Z,17.30
2023-05-12T07:38:37.083Z,16.90
2023-05-12T07:41:03.768Z,16.20
2023-05-12T07:43:30.485Z,15.98
2023-05-12T07:45:59.276Z,17.73
2023-05-12T07:48:25.856Z,17.45
2023-05-12T07:50:52.601Z,16.98
2023-05-12T07:53:19.200Z,16.48
2023-05-12T07:55:46.432Z,17.92
2023-05-12T07:58:13.395Z,17.25
2023-05-12T08:00:40.566Z,16.60
2023-05-12T08:03:07.763Z,16.58
2023-05-12T08:05:34.493Z,16.98
2023-05-12T08:08:01.110Z,17.10
2023-05-12T08:10:29.852Z,15.70
2023-05-12T08:12:56.626Z,15.80
2023-05-12T08:15:23.411Z,15.02
2023-05-12T08:17:50.010Z,15.73
2023-05-12T08:20:16.628Z,15.13
2023-05-12T08:22:44.072Z,14.80
2023-05-12T08:25:12.565Z,14.43
2023-05-12T08:27:39.462Z,15.02
2023-05-12T08:30:06.477Z,14.65
2023-05-12T08:32:33.201Z,15.20
2023-05-12T08:35:01.030Z,15.43
2023-05-12T08:37:28.071Z,13.80
2023-05-12T08:39:54.764Z,13.98
2023-05-12T08:42:37.344Z,14.60
2023-05-12T08:45:04.416Z,14.57
2023-05-12T08:47:33.513Z,12.52
2023-05-12T08:50:02.127Z,12.85
2023-05-12T08:52:38.712Z,13.70
2023-05-12T08:55:05.837Z,14.00
2023-05-12T08:57:33.140Z,13.85
2023-05-12T09:00:02.430Z,14.30
2023-05-12T09:02:41.079Z,11.95
2023-05-12T09:05:15.261Z,12.75
2023-05-12T09:07:44.480Z,12.88
2023-05-12T09:10:33.641Z,13.57
2023-05-12T09:13:23.464Z,14.25
2023-05-12T09:15:53.731Z,13.77
2023-05-12T09:18:20.329Z,13.98
2023-05-12T09:20:47.285Z,13.68
2023-05-12T09:23:19.446Z,14.18
2023-05-12T09:25:49.883Z,14.30
2023-05-12T09:28:16.482Z,13.07
2023-05-12T09:30:43.195Z,13.65
2023-05-12T09:33:13.766Z,13.43
2023-05-12T09:35:42.252Z,13.10
2023-05-12T09:38:10.024Z,13.13
2023-05-12T09:40:37.144Z,12.98
2023-05-12T09:43:05.819Z,14.13
2023-05-12T09:45:39.152Z,12.88
2023-05-12T09:48:12.650Z,13.73
2023-05-12T09:50:47.774Z,13.80
2023-05-12T09:53:17.718Z,13.02
2023-05-12T09:55:45.626Z,12.15
2023-05-12T09:58:18.036Z,12.55
2023-05-12T10:01:06.165Z,11.93
2023-05-12T10:03:34.285Z,12.30
2023-05-12T10:06:05.645Z,12.23
2023-05-12T10:09:09.043Z,11.90
2023-05-12T10:11:36.437Z,11.20
2023-05-12T10:14:04.394Z,11.85
2023-05-12T10:16:32.940Z,11.73
2023-05-12T10:19:00.192Z,12.95
2023-05-12T10:21:27.457Z,11.73
2023-05-12T10:23:54.924Z,10.52
2023-05-12T10:26:21.997Z,11.40
2023-05-12T10:28:49.881Z,11.32
2023-05-12T10:31:17.096Z,11.57
2023-05-12T10:33:43.634Z,11.52
2023-05-12T10:36:19.727Z,11.90
2023-05-12T10:38:51.419Z,11.27
2023-05-12T10:41:29.399Z,11.02
2023-05-12T10:43:55.972Z,10.68
2023-05-12T10:46:24.328Z,11.63
2023-05-12T10:49:06.257Z,11.05
2023-05-12T10:51:50.905Z,10.70
2023-05-12T10:54:24.224Z,10.82
2023-05-12T10:56:51.711Z,11.13
2023-05-12T10:59:20.246Z,11.07
2023-05-12T11:02:06.628Z,11.23
2023-05-12T11:04:37.356Z,10.38
2023-05-12T11:07:06.193Z,10.50
2023-05-12T11:09:36.721Z,9.52
2023-05-12T11:12:08.809Z,10.60
2023-05-12T11:14:35.950Z,9.18
2023-05-12T11:17:03.017Z,9.80
2023-05-12T11:19:30.448Z,9.90
2023-05-12T11:21:57.035Z,9.85
2023-05-12T11:24:23.981Z,9.68
2023-05-12T11:26:53.884Z,9.38
2023-05-12T11:29:21.312Z,9.10
2023-05-12T11:31:49.449Z,9.52
2023-05-12T11:34:16.965Z,8.93
2023-05-12T11:36:44.334Z,9.05
2023-05-12T11:39:16.924Z,7.90
2023-05-12T11:41:44.314Z,8.48
2023-05-12T11:44:19.108Z,8.48
2023-05-12T11:49:29.976Z,7.10
2023-05-12T11:51:59.255Z,7.20
2023-05-12T11:54:28.560Z,7.70
2023-05-12T11:56:56.653Z,6.65
2023-05-12T11:59:34.953Z,6.88
2023-05-12T12:02:03.193Z,5.43
2023-05-12T12:04:33.759Z,7.72
2023-05-12T12:07:01.253Z,7.03
2023-05-12T12:09:46.211Z,6.82
2023-05-12T12:12:12.792Z,7.13
2023-05-12T12:14:41.438Z,7.30
2023-05-12T12:17:08.007Z,7.20
2023-05-12T12:19:34.527Z,6.57
2023-05-12T12:22:01.126Z,6.28
2023-05-12T12:24:27.718Z,7.50
2023-05-12T12:26:54.311Z,6.97
2023-05-12T12:29:20.820Z,7.03
2023-05-12T12:31:47.551Z,5.82
2023-05-12T12:34:14.138Z,8.65
2023-05-12T12:36:41.177Z,7.93
2023-05-12T12:39:08.020Z,8.20
2023-05-12T12:41:34.548Z,8.38
2023-05-12T12:44:01.390Z,8.63
2023-05-12T12:46:27.943Z,8.57
2023-05-12T12:48:54.575Z,8.55
2023-05-12T12:51:21.151Z,9.07
2023-05-12T12:53:47.665Z,8.98
2023-05-12T12:56:14.224Z,8.32
2023-05-12T12:58:41.358Z,8.07
2023-05-12T13:01:08.033Z,8.18
2023-05-12T13:03:34.654Z,8.25
2023-05-12T13:06:01.206Z,8.73
2023-05-12T13:08:27.738Z,7.88
2023-05-12T13:10:55.279Z,7.18
2023-05-12T13:13:21.856Z,7.63
2023-05-12T13:15:48.419Z,7.95
2023-05-12T13:18:14.978Z,6.43
2023-05-12T13:20:41.590Z,6.90
2023-05-12T13:23:08.148Z,7.78
2023-05-12T13:25:34.736Z,6.43
2023-05-12T13:28:01.597Z,6.43
2023-05-12T13:30:28.162Z,5.53
2023-05-12T13:32:54.798Z,6.40
2023-05-12T13:35:21.827Z,5.13
2023-05-12T13:37:48.534Z,5.35
2023-05-12T13:40:15.127Z,5.03
2023-05-12T13:42:41.673Z,4.57
2023-05-12T13:45:09.222Z,4.22
2023-05-12T13:47:35.835Z,4.93
2023-05-12T13:50:02.405Z,4.93
2023-05-12T13:52:29.004Z,4.97
2023-05-12T13:54:55.718Z,5.15
2023-05-12T13:57:22.257Z,4.32
2023-05-12T13:59:48.844Z,4.80
2023-05-12T14:02:15.647Z,5.47
2023-05-12T14:04:42.311Z,4.25
2023-05-12T14:07:09.015Z,4.93
2023-05-12T14:09:35.593Z,5.20
2023-05-12T14:12:02.549Z,4.97
2023-05-12T14:14:29.052Z,4.50
2023-05-12T14:16:55.718Z,3.53
2023-05-12T14:19:22.310Z,4.15
2023-05-12T14:21:49.097Z,4.45
2023-05-12T14:24:15.783Z,3.97
2023-05-12T14:26:42.323Z,4.00
2023-05-12T14:29:09.043Z,4.25
2023-05-12T14:31:35.651Z,3.80
2023-05-12T14:34:04.160Z,3.95
2023-05-12T14:36:30.865Z,4.40
2023-05-12T14:39:40.963Z,4.22
2023-05-12T14:42:07.579Z,4.43
2023-05-12T14:44:34.248Z,5.07
2023-05-12T14:47:00.862Z,4.47
2023-05-12T14:49:27.467Z,4.55
2023-05-12T14:51:54.034Z,4.03
2023-05-12T14:54:25.572Z,4.43
2023-05-12T14:56:52.838Z,5.03
2023-05-12T14:59:19.594Z,4.82
2023-05-12T15:01:46.617Z,4.43
2023-05-12T15:04:13.374Z,4.70
2023-05-12T15:06:40.119Z,3.92
2023-05-12T15:09:07.308Z,4.40
2023-05-12T15:11:34.072Z,3.78
2023-05-12T15:14:00.663Z,4.30
2023-05-12T15:16:28.138Z,4.20
2023-05-12T15:18:54.911Z,4.28
2023-05-12T15:21:21.705Z,4.20
2023-05-12T15:23:48.498Z,3.58
2023-05-12T15:26:31.241Z,4.30
2023-05-12T15:28:58.448Z,3.70
2023-05-12T15:31:28.322Z,3.60
2023-05-12T15:33:56.588Z,3.40
2023-05-12T15:36:23.235Z,3.55
2023-05-12T15:38:49.835Z,3.75
2023-05-12T15:41:16.422Z,3.63
2023-05-12T15:43:42.978Z,3.97
2023-05-12T15:46:10.870Z,3.75
2023-05-12T15:48:37.600Z,4.85
2023-05-12T15:51:04.314Z,3.70
2023-05-12T15:53:31.371Z,4.07
2023-05-12T15:56:02.000Z,4.38
2023-05-12T15:58:29.409Z,4.50
2023-05-12T16:00:56.164Z,5.53
2023-05-12T16:03:23.759Z,5.70
2023-05-12T16:05:50.709Z,5.72
2023-05-12T16:08:17.744Z,6.53
2023-05-12T16:10:44.485Z,6.93
2023-05-12T16:13:11.098Z,6.97
2023-05-12T16:15:37.731Z,7.97
2023-05-12T16:21:46.042Z,7.13
2023-05-12T16:24:12.912Z,8.00
2023-05-12T16:26:40.908Z,7.57
2023-05-12T16:29:07.512Z,8.68
2023-05-12T16:31:35.420Z,8.07
2023-05-12T16:34:03.438Z,7.53
2023-05-12T16:36:31.877Z,6.43
2023-05-12T16:38:59.515Z,6.47
2023-05-12T16:41:28.629Z,6.35
2023-05-12T16:43:55.458Z,5.97
2023-05-12T16:46:22.294Z,5.53
2023-05-12T16:48:48.983Z,5.43
2023-05-12T16:51:15.613Z,5.45
2023-05-12T16:53:42.613Z,5.18
2023-05-12T16:56:09.649Z,6.25
2023-05-12T16:58:36.288Z,5.85
2023-05-12T17:01:03.566Z,5.88
2023-05-12T17:03:30.421Z,5.85
2023-05-12T17:05:57.389Z,6.07
2023-05-12T17:08:24.662Z,5.75
2023-05-12T17:10:54.320Z,5.82
2023-05-12T17:13:21.437Z,5.80
2023-05-12T17:15:48.143Z,6.55
2023-05-12T17:18:14.671Z,6.45
2023-05-12T17:20:41.675Z,7.25
2023-05-12T17:23:08.301Z,7.82
2023-05-12T17:25:35.032Z,8.30
2023-05-12T17:28:01.585Z,9.07
2023-05-12T17:30:28.386Z,8.90
2023-05-12T17:32:54.957Z,9.52
2023-05-12T17:35:22.018Z,9.38
2023-05-12T17:37:51.771Z,8.25
2023-05-12T17:40:18.439Z,9.13
2023-05-12T17:42:45.281Z,7.75
2023-05-12T17:45:14.304Z,8.48
2023-05-12T17:47:41.495Z,7.55
2023-05-12T17:50:14.033Z,8.13
2023-05-12T17:52:41.793Z,7.13
2023-05-12T17:55:08.988Z,7.75
2023-05-12T17:57:35.529Z,7.43
2023-05-12T18:00:06.427Z,6.72
2023-05-12T18:02:33.042Z,6.68
2023-05-12T18:04:59.792Z,6.90
2023-05-12T18:07:27.241Z,6.68
2023-05-12T18:09:53.805Z,6.93
2023-05-12T18:12:20.765Z,6.93
2023-05-12T18:14:47.405Z,7.28
2023-05-12T18:17:14.025Z,6.35
2023-05-12T18:19:40.665Z,6.55
2023-05-12T18:22:07.268Z,6.53
2023-05-12T18:24:34.011Z,6.80
2023-05-12T18:27:01.064Z,6.32
2023-05-12T18:29:27.985Z,6.35
2023-05-12T18:31:54.553Z,5.88
2023-05-12T18:34:21.234Z,5.25
2023-05-12T18:36:47.923Z,5.97
2023-05-12T18:39:15.181Z,5.55
2023-05-12T18:41:42.780Z,5.78
2023-05-12T18:44:10.400Z,5.07
2023-05-12T18:46:36.993Z,5.32
2023-05-12T18:49:03.842Z,6.25
2023-05-12T18:51:30.575Z,4.68
2023-05-12T18:53:57.177Z,5.32
2023-05-12T18:56:23.759Z,4.70
2023-05-12T18:58:50.298Z,4.53
2023-05-12T19:01:17.359Z,4.82
2023-05-12T19:03:43.965Z,5.07
2023-05-12T19:06:11.245Z,5.32
2023-05-12T19:08:37.804Z,4.68
2023-05-12T19:11:04.388Z,4.78
2023-05-12T19:13:30.988Z,5.28
2023-05-12T19:15:57.628Z,4.45
2023-05-12T19:18:24.198Z,5.45
2023-05-12T19:20:50.743Z,4.70
2023-05-12T19:23:18.077Z,6.03
2023-05-12T19:25:44.750Z,4.93
2023-05-12T19:28:12.009Z,5.10
2023-05-12T19:30:38.581Z,5.07
2023-05-12T19:33:06.465Z,6.03
2023-05-12T19:35:34.323Z,5.32
2023-05-12T19:38:00.999Z,5.30
2023-05-12T19:40:27.756Z,5.70
2023-05-12T19:42:55.231Z,5.93
2023-05-12T19:45:22.275Z,5.85
2023-05-12T19:47:49.309Z,6.30
2023-05-12T19:50:18.597Z,6.03
2023-05-12T19:52:45.211Z,6.53
2023-05-12T19:55:11.933Z,5.43
2023-05-12T19:57:38.590Z,6.05
2023-05-12T20:00:05.851Z,5.70
2023-05-12T20:02:32.429Z,6.13
2023-05-12T20:05:00.539Z,5.88
2023-05-12T20:07:27.567Z,6.20
2023-05-12T20:09:54.273Z,6.03
2023-05-12T20:12:20.850Z,6.38
2023-05-12T20:14:47.393Z,6.82
2023-05-12T20:17:14.074Z,6.55
2023-05-12T20:19:40.803Z,6.75
2023-05-12T20:22:07.363Z,6.38
2023-05-12T20:24:33.922Z,6.80
2023-05-12T20:27:00.730Z,7.10
2023-05-12T20:29:27.608Z,7.13
2023-05-12T20:31:54.481Z,8.20
2023-05-12T20:34:21.078Z,8.13
2023-05-12T20:36:47.713Z,7.93
2023-05-12T20:39:15.243Z,6.88
2023-05-12T20:41:43.411Z,6.88
2023-05-12T20:44:10.210Z,7.25
2023-05-12T20:46:38.374Z,7.45
2023-05-12T20:49:06.113Z,7.43
2023-05-12T20:51:33.531Z,6.53
2023-05-12T20:54:00.164Z,7.40
2023-05-12T20:56:27.135Z,8.18
2023-05-12T20:58:53.827Z,8.13
2023-05-12T21:01:20.581Z,7.70
2023-05-12T21:03:47.286Z,8.13
2023-05-12T21:06:14.124Z,6.78
2023-05-12T21:08:40.670Z,7.35
2023-05-12T21:11:18.123Z,8.00
2023-05-12T21:13:46.039Z,8.10
2023-05-12T21:16:12.763Z,7.43
2023-05-12T21:18:39.500Z,7.95
2023-05-12T21:21:06.584Z,6.68
2023-05-12T21:23:33.449Z,7.38
2023-05-12T21:26:00.114Z,7.57
2023-05-12T21:28:26.822Z,7.07
2023-05-12T21:30:53.420Z,6.68
2023-05-12T21:33:21.213Z,6.57
2023-05-12T21:35:49.872Z,6.68
2023-05-12T21:38:16.953Z,6.13
2023-05-12T21:40:43.563Z,7.47
2023-05-12T21:43:10.175Z,7.40
2023-05-12T21:45:37.309Z,6.70
2023-05-12T21:48:04.153Z,6.45
2023-05-12T21:50:30.838Z,6.57
2023-05-12T21:52:57.437Z,6.65
2023-05-12T21:55:23.980Z,5.93
2023-05-12T21:57:50.537Z,6.32
2023-05-12T22:00:20.298Z,6.00
2023-05-12T22:02:50.371Z,5.45
2023-05-12T22:05:17.055Z,6.57
2023-05-12T22:07:44.020Z,5.40
2023-05-12T22:10:10.600Z,5.72
2023-05-12T22:12:37.688Z,5.43
2023-05-12T22:15:04.737Z,4.55
2023-05-12T22:17:31.626Z,5.22
2023-05-12T22:19:58.239Z,5.28
2023-05-12T22:22:24.787Z,4.35
2023-05-12T22:24:52.010Z,4.30
2023-05-12T22:27:22.078Z,3.92
2023-05-12T22:29:49.798Z,3.63
2023-05-12T22:32:16.427Z,3.78
2023-05-12T22:34:43.098Z,3.55
2023-05-12T22:37:09.656Z,3.42
2023-05-12T22:39:36.276Z,3.63
2023-05-12T22:42:03.318Z,3.88
2023-05-12T22:44:30.889Z,3.33
2023-05-12T22:46:58.093Z,3.40
2023-05-12T22:49:24.755Z,2.72
2023-05-12T22:51:51.339Z,2.83
2023-05-12T22:54:17.890Z,2.90
2023-05-12T22:56:44.930Z,4.55
2023-05-12T22:59:11.553Z,2.72
2023-05-12T23:01:38.238Z,2.90
2023-05-12T23:04:04.884Z,3.17
2023-05-12T23:06:31.516Z,2.80
2023-05-12T23:08:58.270Z,2.60
2023-05-12T23:11:24.866Z,3.20
2023-05-12T23:13:51.471Z,2.60
2023-05-12T23:16:18.060Z,4.43
2023-05-12T23:18:44.718Z,2.30
2023-05-12T23:21:11.345Z,2.55
2023-05-12T23:23:37.936Z,2.67
2023-05-12T23:26:04.525Z,1.92
2023-05-12T23:28:31.204Z,2.60
2023-05-12T23:30:57.797Z,2.35
2023-05-12T23:33:24.468Z,2.35
2023-05-12T23:35:51.138Z,3.03
2023-05-12T23:38:17.707Z,1.95
2023-05-12T23:40:44.378Z,2.20
2023-05-12T23:43:10.960Z,2.33
2023-05-12T23:45:37.540Z,2.60
2023-05-12T23:48:04.332Z,1.95
2023-05-12T23:50:30.926Z,2.30
2023-05-12T23:52:57.540Z,2.92
2023-05-12T23:55:24.106Z,2.17
2023-05-12T23:57:50.634Z,2.35
